createdAt,value
2022-08-05T00:01:36.337Z,97483.94
2022-08-05T00:04:17.086Z,97477.94
2022-08-05T00:06:44.544Z,97469.28
2022-08-05T00:09:16.022Z,97473.91
2022-08-05T00:11:49.229Z,97475.50
2022-08-05T00:14:22.045Z,97473.97
2022-08-05T00:16:54.578Z,97477.19
2022-08-05T00:19:33.337Z,97472.72
2022-08-05T00:22:11.370Z,97472.22
2022-08-05T00:24:38.427Z,97465.53
2022-08-05T00:27:10.323Z,97471.47
2022-08-05T00:29:40.706Z,97463.97
2022-08-05T00:32:12.571Z,97465.19
2022-08-05T00:35:05.216Z,97466.66
2022-08-05T00:37:51.414Z,97462.91
2022-08-05T00:40:17.652Z,97467.56
2022-08-05T00:42:48.229Z,97464.53
2022-08-05T00:45:16.144Z,97460.00
2022-08-05T00:47:57.736Z,97463.97
2022-08-05T00:50:32.602Z,97470.66
2022-08-05T00:52:59.205Z,97466.41
2022-08-05T00:55:42.081Z,97453.91
2022-08-05T00:58:11.247Z,97451.19
2022-08-05T01:00:39.619Z,97451.19
2022-08-05T01:03:07.900Z,97448.91
2022-08-05T01:05:35.114Z,97449.22
2022-08-05T01:08:41.245Z,97448.06
2022-08-05T01:10:55.429Z,97449.84
2022-08-05T01:13:57.341Z,97449.34
2022-08-05T01:16:35.787Z,97446.22
2022-08-05T01:19:22.326Z,97446.31
2022-08-05T01:22:40.735Z,97442.41
2022-08-05T01:25:40.490Z,97442.72
2022-08-05T01:28:43.313Z,97445.81
2022-08-05T01:31:42.627Z,97452.19
2022-08-05T01:34:32.795Z,97445.06
2022-08-05T01:37:08.146Z,97449.31
2022-08-05T01:39:47.074Z,97443.19
2022-08-05T01:42:17.206Z,97445.75
2022-08-05T01:44:54.131Z,97450.34
2022-08-05T01:47:23.240Z,97441.59
2022-08-05T01:50:01.683Z,97440.53
2022-08-05T01:52:32.323Z,97433.84
2022-08-05T01:55:04.415Z,97438.78
2022-08-05T01:58:12.356Z,97433.75
2022-08-05T02:00:30.240Z,97434.91
2022-08-05T02:03:06.941Z,97429.84
2022-08-05T02:05:59.787Z,97429.16
2022-08-05T02:08:30.772Z,97434.16
2022-08-05T02:11:32.737Z,97430.75
2022-08-05T02:14:13.119Z,97437.16
2022-08-05T02:16:46.695Z,97422.25
2022-08-05T02:19:34.153Z,97426.41
2022-08-05T02:22:26.482Z,97424.72
2022-08-05T02:25:02.457Z,97421.63
2022-08-05T02:27:59.147Z,97419.47
2022-08-05T02:30:21.642Z,97428.00
2022-08-05T02:32:52.618Z,97422.94
2022-08-05T02:35:27.927Z,97421.47
2022-08-05T02:38:00.186Z,97412.25
2022-08-05T02:40:30.078Z,97416.72
2022-08-05T02:43:00.039Z,97409.69
2022-08-05T02:45:28.920Z,97414.09
2022-08-05T02:48:16.183Z,97407.78
2022-08-05T02:50:47.069Z,97409.25
2022-08-05T02:53:19.014Z,97409.94
2022-08-05T02:55:59.679Z,97408.72
2022-08-05T02:58:28.895Z,97409.59
2022-08-05T03:01:00.757Z,97408.13
2022-08-05T03:03:33.800Z,97405.53
2022-08-05T03:06:55.283Z,97409.50
2022-08-05T03:09:05.135Z,97412.69
2022-08-05T03:11:53.184Z,97405.97
2022-08-05T03:14:21.214Z,97409.72
2022-08-05T03:16:47.901Z,97414.81
2022-08-05T03:19:29.480Z,97407.97
2022-08-05T03:22:00.322Z,97416.06
2022-08-05T03:24:30.479Z,97406.22
2022-08-05T03:26:59.380Z,97398.47
2022-08-05T03:29:44.606Z,97405.28
2022-08-05T03:32:14.253Z,97401.28
2022-08-05T03:34:42.756Z,97402.22
2022-08-05T03:37:19.663Z,97398.00
2022-08-05T03:40:01.220Z,97405.13
2022-08-05T03:42:32.797Z,97407.63
2022-08-05T03:45:01.820Z,97401.34
2022-08-05T03:47:46.883Z,97407.34
2022-08-05T03:50:16.013Z,97399.72
2022-08-05T03:55:50.694Z,97403.97
2022-08-05T03:56:11.487Z,97402.81
2022-08-05T03:58:46.652Z,97403.47
2022-08-05T04:01:16.429Z,97402.28
2022-08-05T04:04:05.466Z,97396.28
2022-08-05T04:06:37.186Z,97400.28
2022-08-05T04:09:06.334Z,97399.16
2022-08-05T04:11:50.619Z,97392.34
2022-08-05T04:14:19.575Z,97403.81
2022-08-05T04:16:58.027Z,97395.31
2022-08-05T04:19:24.886Z,97400.69
2022-08-05T04:22:08.614Z,97399.72
2022-08-05T04:24:43.946Z,97407.97
2022-08-05T04:27:15.250Z,97402.63
2022-08-05T04:29:42.388Z,97402.78
2022-08-05T04:32:09.498Z,97406.59
2022-08-05T04:34:42.676Z,97404.09
2022-08-05T04:37:10.208Z,97408.97
2022-08-05T04:39:37.693Z,97400.91
2022-08-05T04:42:06.226Z,97406.38
2022-08-05T04:44:33.161Z,97400.69
2022-08-05T04:47:08.989Z,97397.13
2022-08-05T04:49:38.977Z,97393.63
2022-08-05T04:52:24.116Z,97396.66
2022-08-05T04:54:54.672Z,97396.75
2022-08-05T04:57:28.954Z,97398.25
2022-08-05T04:59:56.532Z,97395.81
2022-08-05T05:02:41.404Z,97389.59
2022-08-05T05:05:26.196Z,97394.25
2022-08-05T05:08:14.204Z,97390.50
2022-08-05T05:10:55.955Z,97396.25
2022-08-05T05:13:23.288Z,97400.28
2022-08-05T05:15:57.927Z,97404.72
2022-08-05T05:18:33.391Z,97400.94
2022-08-05T05:21:02.297Z,97399.06
2022-08-05T05:23:39.228Z,97391.97
2022-08-05T05:26:16.623Z,97386.22
2022-08-05T05:28:45.141Z,97396.50
2022-08-05T05:31:12.257Z,97391.84
2022-08-05T05:33:58.681Z,97388.13
2022-08-05T05:36:25.671Z,97391.00
2022-08-05T05:38:57.129Z,97397.72
2022-08-05T05:41:24.007Z,97391.44
2022-08-05T05:43:57.524Z,97394.31
2022-08-05T05:46:25.770Z,97393.00
2022-08-05T05:48:52.523Z,97399.25
2022-08-05T05:51:21.461Z,97395.00
2022-08-05T05:53:58.367Z,97386.59
2022-08-05T05:56:32.563Z,97383.22
2022-08-05T05:59:06.814Z,97380.69
2022-08-05T06:01:37.995Z,97382.88
2022-08-05T06:04:13.319Z,97381.94
2022-08-05T06:06:43.169Z,97388.88
2022-08-05T06:09:17.052Z,97386.13
2022-08-05T06:11:59.155Z,97384.09
2022-08-05T06:14:28.034Z,97394.53
2022-08-05T06:16:57.003Z,97380.19
2022-08-05T06:19:32.990Z,97390.53
2022-08-05T06:22:01.086Z,97383.66
2022-08-05T06:24:27.702Z,97379.91
2022-08-05T06:26:55.007Z,97388.34
2022-08-05T06:29:25.170Z,97383.25
2022-08-05T06:32:21.230Z,97373.75
2022-08-05T06:34:53.514Z,97375.25
2022-08-05T06:37:57.746Z,97380.84
2022-08-05T06:40:11.004Z,97377.66
2022-08-05T06:42:39.880Z,97379.91
2022-08-05T06:45:08.919Z,97371.13
2022-08-05T06:48:36.110Z,97370.84
2022-08-05T06:50:23.585Z,97373.19
2022-08-05T06:53:03.924Z,97374.56
2022-08-05T06:55:37.519Z,97374.63
2022-08-05T06:58:20.381Z,97386.91
2022-08-05T07:00:51.943Z,97377.09
2022-08-05T07:03:19.031Z,97373.81
2022-08-05T07:05:46.415Z,97371.00
2022-08-05T07:08:13.663Z,97374.34
2022-08-05T07:10:53.062Z,97373.25
2022-08-05T07:13:57.748Z,97369.38
2022-08-05T07:17:58.541Z,97365.75
2022-08-05T07:20:16.443Z,97371.50
2022-08-05T07:22:22.126Z,97363.09
2022-08-05T07:25:23.553Z,97361.31
2022-08-05T07:27:57.722Z,97360.34
2022-08-05T07:30:32.730Z,97354.22
2022-08-05T07:33:05.391Z,97351.56
2022-08-05T07:36:03.457Z,97356.09
2022-08-05T07:38:33.471Z,97358.16
2022-08-05T07:42:07.172Z,97354.53
2022-08-05T07:43:50.063Z,97357.19
2022-08-05T07:46:24.667Z,97359.16
2022-08-05T07:49:01.956Z,97355.44
2022-08-05T07:51:36.685Z,97357.88
2022-08-05T07:54:05.936Z,97355.31
2022-08-05T07:56:59.970Z,97356.38
2022-08-05T07:59:31.179Z,97355.34
2022-08-05T08:02:15.413Z,97359.78
2022-08-05T08:04:48.988Z,97363.09
2022-08-05T08:07:22.025Z,97352.88
2022-08-05T08:09:52.361Z,97356.81
2022-08-05T08:12:37.024Z,97361.31
2022-08-05T08:15:15.716Z,97360.28
2022-08-05T08:17:52.813Z,97348.63
2022-08-05T08:21:00.496Z,97363.22
2022-08-05T08:23:59.875Z,97359.13
2022-08-05T08:26:00.633Z,97356.81
2022-08-05T08:28:36.868Z,97363.38
2022-08-05T08:31:18.193Z,97353.22
2022-08-05T08:33:45.954Z,97353.47
2022-08-05T08:36:38.830Z,97346.41
2022-08-05T08:39:01.692Z,97347.13
2022-08-05T08:41:50.973Z,97339.44
2022-08-05T08:45:16.964Z,97343.53
2022-08-05T08:47:47.014Z,97342.56
2022-08-05T08:50:12.999Z,97341.13
2022-08-05T08:52:54.028Z,97343.81
2022-08-05T08:55:32.089Z,97335.75
2022-08-05T08:58:12.898Z,97335.28
2022-08-05T09:00:40.604Z,97338.78
2022-08-05T09:03:09.614Z,97337.03
2022-08-05T09:05:38.283Z,97329.31
2022-08-05T09:08:27.333Z,97322.66
2022-08-05T09:10:54.646Z,97330.44
2022-08-05T09:13:21.667Z,97335.94
2022-08-05T09:15:51.341Z,97328.81
2022-08-05T09:18:19.838Z,97328.22
2022-08-05T09:20:47.116Z,97325.09
2022-08-05T09:23:23.542Z,97326.72
2022-08-05T09:26:20.859Z,97325.06
2022-08-05T09:28:49.311Z,97322.97
2022-08-05T09:31:44.124Z,97316.78
2022-08-05T09:34:09.968Z,97319.06
2022-08-05T09:36:54.167Z,97316.84
2022-08-05T09:39:39.441Z,97319.38
2022-08-05T09:42:17.433Z,97314.50
2022-08-05T09:44:52.897Z,97309.94
2022-08-05T09:47:35.221Z,97305.06
2022-08-05T09:50:13.582Z,97311.56
2022-08-05T09:52:45.387Z,97312.09
2022-08-05T09:55:57.496Z,97311.97
2022-08-05T09:58:00.372Z,97307.72
2022-08-05T10:00:30.590Z,97300.16
2022-08-05T10:02:58.284Z,97300.00
2022-08-05T10:05:28.651Z,97300.53
2022-08-05T10:08:36.552Z,97307.09
2022-08-05T10:10:54.242Z,97291.94
2022-08-05T10:13:31.587Z,97295.88
2022-08-05T10:16:33.826Z,97295.84
2022-08-05T10:19:09.243Z,97292.94
2022-08-05T10:21:40.188Z,97292.91
2022-08-05T10:24:15.239Z,97286.94
2022-08-05T10:26:51.732Z,97279.06
2022-08-05T10:29:23.930Z,97278.25
2022-08-05T10:32:52.808Z,97278.28
2022-08-05T10:35:00.839Z,97276.59
2022-08-05T10:37:40.285Z,97280.09
2022-08-05T10:40:20.327Z,97273.63
2022-08-05T10:43:01.568Z,97273.66
2022-08-05T10:45:40.122Z,97272.25
2022-08-05T10:48:57.241Z,97269.69
2022-08-05T10:51:29.231Z,97268.22
2022-08-05T10:54:23.146Z,97271.41
2022-08-05T10:56:53.175Z,97268.66
2022-08-05T11:00:03.709Z,97267.13
2022-08-05T11:02:37.597Z,97263.59
2022-08-05T11:05:09.449Z,97269.97
2022-08-05T11:08:02.605Z,97267.66
2022-08-05T11:10:32.802Z,97267.38
2022-08-05T11:13:01.264Z,97267.28
2022-08-05T11:15:58.960Z,97264.69
2022-08-05T11:18:29.933Z,97264.47
2022-08-05T11:20:57.119Z,97261.31
2022-08-05T11:23:33.413Z,97259.53
2022-08-05T11:26:10.369Z,97256.19
2022-08-05T11:28:38.775Z,97264.34
2022-08-05T11:31:06.883Z,97262.53
2022-08-05T11:33:46.503Z,97250.13
2022-08-05T11:36:34.328Z,97256.13
2022-08-05T11:39:08.194Z,97258.13
2022-08-05T11:42:00.835Z,97249.09
2022-08-05T11:44:41.163Z,97261.25
2022-08-05T11:47:15.097Z,97256.00
2022-08-05T11:49:51.231Z,97254.09
2022-08-05T11:52:29.320Z,97251.38
2022-08-05T11:54:58.567Z,97240.44
2022-08-05T11:57:30.700Z,97249.03
2022-08-05T12:00:25.862Z,97251.41
2022-08-05T12:02:56.564Z,97251.28
2022-08-05T12:05:32.323Z,97248.78
2022-08-05T12:08:09.821Z,97246.03
2022-08-05T12:10:44.939Z,97240.75
2022-08-05T12:13:18.621Z,97230.59
2022-08-05T12:15:55.967Z,97235.28
2022-08-05T12:18:33.910Z,97234.22
2022-08-05T12:21:39.084Z,97235.34
2022-08-05T12:24:18.243Z,97228.25
2022-08-05T12:26:54.168Z,97233.81
2022-08-05T12:29:23.075Z,97232.91
2022-08-05T12:31:54.376Z,97221.06
2022-08-05T12:34:31.116Z,97223.28
2022-08-05T12:37:10.598Z,97226.50
2022-08-05T12:39:41.136Z,97221.84
2022-08-05T12:42:17.627Z,97215.22
2022-08-05T12:44:45.891Z,97209.50
2022-08-05T12:47:26.813Z,97209.06
2022-08-05T12:50:02.501Z,97204.75
2022-08-05T12:52:38.848Z,97197.75
2022-08-05T12:55:28.541Z,97194.59
2022-08-05T12:58:48.313Z,97190.47
2022-08-05T13:02:02.287Z,97195.78
2022-08-05T13:03:42.202Z,97195.25
2022-08-05T13:06:17.671Z,97189.88
2022-08-05T13:08:51.658Z,97188.19
2022-08-05T13:11:59.951Z,97188.16
2022-08-05T13:14:19.399Z,97182.94
2022-08-05T13:16:58.239Z,97174.97
2022-08-05T13:19:27.794Z,97178.94
2022-08-05T13:22:14.410Z,97182.28
2022-08-05T13:25:00.281Z,97173.78
2022-08-05T13:27:43.903Z,97171.94
2022-08-05T13:30:34.683Z,97164.06
2022-08-05T13:33:03.951Z,97159.97
2022-08-05T13:35:50.438Z,97149.00
2022-08-05T13:38:28.051Z,97151.47
2022-08-05T13:40:57.149Z,97143.16
2022-08-05T13:43:23.842Z,97144.34
2022-08-05T13:46:11.694Z,97138.63
2022-08-05T13:48:58.485Z,97132.84
2022-08-05T13:51:36.370Z,97132.56
2022-08-05T13:54:12.752Z,97126.94
2022-08-05T13:56:44.885Z,97120.66
2022-08-05T13:59:20.472Z,97122.22
2022-08-05T14:01:57.572Z,97118.97
2022-08-05T14:04:49.182Z,97119.75
2022-08-05T14:07:25.801Z,97131.50
2022-08-05T14:10:03.421Z,97130.78
2022-08-05T14:12:32.548Z,97138.81
2022-08-05T14:14:59.817Z,97141.94
2022-08-05T14:17:26.688Z,97137.94
2022-08-05T14:20:01.011Z,97133.00
2022-08-05T14:22:34.243Z,97138.06
2022-08-05T14:25:02.552Z,97130.97
2022-08-05T14:27:33.228Z,97127.75
2022-08-05T14:30:00.865Z,97123.81
2022-08-05T14:32:28.434Z,97132.00
2022-08-05T14:34:56.844Z,97132.25
2022-08-05T14:37:44.850Z,97132.06
2022-08-05T14:40:14.152Z,97131.69
2022-08-05T14:42:44.156Z,97136.69
2022-08-05T14:45:11.093Z,97132.06
2022-08-05T14:48:02.889Z,97126.66
2022-08-05T14:50:25.369Z,97145.91
2022-08-05T14:52:58.364Z,97148.16
2022-08-05T14:55:38.739Z,97158.25
2022-08-05T14:58:11.146Z,97154.72
2022-08-05T15:00:59.796Z,97157.75
2022-08-05T15:03:33.518Z,97152.31
2022-08-05T15:06:13.115Z,97145.56
2022-08-05T15:08:59.739Z,97151.84
2022-08-05T15:11:50.859Z,97153.63
2022-08-05T15:14:20.277Z,97159.59
2022-08-05T15:17:03.649Z,97156.69
2022-08-05T15:19:31.383Z,97160.75
2022-08-05T15:22:01.045Z,97155.69
2022-08-05T15:24:28.910Z,97164.22
2022-08-05T15:26:57.004Z,97167.06
2022-08-05T15:29:24.090Z,97172.06
2022-08-05T15:32:02.467Z,97166.69
2022-08-05T15:34:32.066Z,97173.09
2022-08-05T15:37:03.535Z,97174.97
2022-08-05T15:40:41.182Z,97167.72
2022-08-05T15:42:56.780Z,97165.03
2022-08-05T15:45:06.172Z,97160.72
2022-08-05T15:47:32.996Z,97167.13
2022-08-05T15:50:03.914Z,97173.38
2022-08-05T15:52:53.963Z,97170.03
2022-08-05T15:55:25.080Z,97166.69
2022-08-05T15:58:07.078Z,97166.19
2022-08-05T16:00:50.545Z,97159.53
2022-08-05T16:03:20.400Z,97160.03
2022-08-05T16:05:52.443Z,97162.31
2022-08-05T16:08:19.469Z,97161.16
2022-08-05T16:10:46.142Z,97170.31
2022-08-05T16:13:19.258Z,97175.06
2022-08-05T16:15:51.837Z,97171.63
2022-08-05T16:18:19.253Z,97174.66
2022-08-05T16:20:46.447Z,97172.09
2022-08-05T16:23:13.128Z,97170.75
2022-08-05T16:25:40.218Z,97167.28
2022-08-05T16:28:09.822Z,97165.09
2022-08-05T16:30:37.399Z,97170.66
2022-08-05T16:33:04.542Z,97171.78
2022-08-05T16:35:32.120Z,97172.78
2022-08-05T16:38:16.109Z,97172.38
2022-08-05T16:40:51.615Z,97171.72
2022-08-05T16:43:23.677Z,97177.22
2022-08-05T16:46:07.388Z,97185.22
2022-08-05T16:48:44.366Z,97176.25
2022-08-05T16:51:11.294Z,97186.50
2022-08-05T16:54:06.299Z,97192.47
2022-08-05T16:56:31.115Z,97196.66
2022-08-05T16:58:58.455Z,97199.06
2022-08-05T17:01:25.578Z,97193.72
2022-08-05T17:03:52.413Z,97202.78
2022-08-05T17:06:20.347Z,97197.75
2022-08-05T17:08:53.544Z,97201.69
2022-08-05T17:11:23.719Z,97196.03
2022-08-05T17:14:00.622Z,97204.41
2022-08-05T17:16:37.716Z,97203.03
2022-08-05T17:19:09.612Z,97209.28
2022-08-05T17:21:39.747Z,97206.00
2022-08-05T17:24:31.236Z,97204.22
2022-08-05T17:26:57.743Z,97208.22
2022-08-05T17:29:34.005Z,97216.25
2022-08-05T17:32:17.158Z,97229.03
2022-08-05T17:34:52.930Z,97217.31
2022-08-05T17:37:39.647Z,97216.69
2022-08-05T17:40:10.957Z,97220.84
2022-08-05T17:42:43.165Z,97227.97
2022-08-05T17:45:21.306Z,97225.75
2022-08-05T17:47:54.027Z,97220.09
2022-08-05T17:50:29.577Z,97220.47
2022-08-05T17:53:02.013Z,97225.69
2022-08-05T17:55:34.266Z,97224.97
2022-08-05T17:58:06.980Z,97230.28
2022-08-05T18:00:36.175Z,97233.25
2022-08-05T18:03:07.870Z,97233.28
2022-08-05T18:05:35.429Z,97225.34
2022-08-05T18:08:02.796Z,97231.63
2022-08-05T18:10:33.407Z,97226.25
2022-08-05T18:13:01.910Z,97228.16
2022-08-05T18:15:35.093Z,97221.28
2022-08-05T18:18:10.893Z,97214.91
2022-08-05T18:20:38.484Z,97214.69
2022-08-05T18:23:11.270Z,97213.41
2022-08-05T18:25:45.045Z,97200.16
2022-08-05T18:28:16.242Z,97201.75
2022-08-05T18:30:51.400Z,97199.56
2022-08-05T18:33:22.714Z,97199.56
2022-08-05T18:36:03.926Z,97196.88
2022-08-05T18:38:37.158Z,97194.03
2022-08-05T18:41:55.542Z,97192.91
2022-08-05T18:43:52.071Z,97189.09
2022-08-05T18:46:19.765Z,97181.88
2022-08-05T18:48:52.074Z,97186.66
2022-08-05T18:52:06.917Z,97186.31
2022-08-05T18:54:31.424Z,97198.63
2022-08-05T18:57:02.407Z,97211.91
2022-08-05T18:59:43.383Z,97226.63
2022-08-05T19:02:28.616Z,97227.16
2022-08-05T19:05:02.829Z,97221.34
2022-08-05T19:07:48.170Z,97223.84
2022-08-05T19:10:28.571Z,97237.41
2022-08-05T19:12:56.615Z,97250.16
2022-08-05T19:15:57.717Z,97255.97
2022-08-05T19:18:20.945Z,97255.72
2022-08-05T19:20:53.842Z,97243.50
2022-08-05T19:24:03.271Z,97256.78
2022-08-05T19:26:08.407Z,97267.31
2022-08-05T19:28:41.471Z,97278.94
2022-08-05T19:31:09.650Z,97287.25
2022-08-05T19:33:40.606Z,97295.88
2022-08-05T19:36:16.760Z,97292.81
2022-08-05T19:38:45.224Z,97286.16
2022-08-05T19:41:11.946Z,97291.72
2022-08-05T19:44:06.019Z,97300.56
2022-08-05T19:46:30.877Z,97302.81
2022-08-05T19:49:03.349Z,97299.47
2022-08-05T19:52:05.179Z,97295.59
2022-08-05T19:54:29.782Z,97299.47
2022-08-05T19:56:59.173Z,97302.78
2022-08-05T19:59:55.785Z,97307.22
2022-08-05T20:02:14.666Z,97310.81
2022-08-05T20:04:42.900Z,97307.44
2022-08-05T20:07:13.464Z,97309.94
2022-08-05T20:09:55.000Z,97305.28
2022-08-05T20:12:24.772Z,97322.16
2022-08-05T20:14:53.297Z,97318.19
2022-08-05T20:17:23.320Z,97317.06
2022-08-05T20:19:56.977Z,97315.34
2022-08-05T20:22:27.121Z,97318.13
2022-08-05T20:24:55.492Z,97316.97
2022-08-05T20:27:26.732Z,97312.59
2022-08-05T20:29:57.631Z,97309.75
2022-08-05T20:32:26.569Z,97316.34
2022-08-05T20:34:53.640Z,97306.75
2022-08-05T20:38:04.595Z,97308.72
2022-08-05T20:40:09.231Z,97321.13
2022-08-05T20:42:36.168Z,97312.88
2022-08-05T20:45:05.338Z,97314.97
2022-08-05T20:47:33.350Z,97314.13
2022-08-05T20:50:02.327Z,97313.75
2022-08-05T20:52:31.786Z,97308.25
2022-08-05T20:55:54.306Z,97314.72
2022-08-05T20:57:45.370Z,97320.25
2022-08-05T21:00:40.310Z,97313.03
2022-08-05T21:03:06.160Z,97321.28
2022-08-05T21:05:47.542Z,97323.94
2022-08-05T21:08:20.078Z,97322.53
2022-08-05T21:10:48.675Z,97325.81
2022-08-05T21:13:25.914Z,97323.25
2022-08-05T21:15:54.636Z,97321.00
2022-08-05T21:18:23.284Z,97316.69
2022-08-05T21:20:50.343Z,97313.94
2022-08-05T21:23:17.164Z,97309.97
2022-08-05T21:25:44.778Z,97316.84
2022-08-05T21:28:12.117Z,97322.34
2022-08-05T21:30:39.680Z,97316.72
2022-08-05T21:33:21.925Z,97312.84
2022-08-05T21:35:59.003Z,97319.00
2022-08-05T21:38:27.170Z,97315.56
2022-08-05T21:40:54.019Z,97309.56
2022-08-05T21:43:24.619Z,97320.59
2022-08-05T21:45:57.453Z,97332.53
2022-08-05T21:48:24.674Z,97324.31
2022-08-05T21:50:53.105Z,97331.09
2022-08-05T21:53:21.541Z,97325.97
2022-08-05T21:56:05.224Z,97328.03
2022-08-05T21:58:37.096Z,97330.53
2022-08-05T22:01:10.758Z,97330.50
2022-08-05T22:03:48.596Z,97334.59
2022-08-05T22:06:23.109Z,97337.69
2022-08-05T22:09:13.928Z,97336.34
2022-08-05T22:11:42.985Z,97333.44
2022-08-05T22:14:19.459Z,97335.72
2022-08-05T22:17:02.941Z,97337.75
2022-08-05T22:20:01.835Z,97337.59
2022-08-05T22:22:17.216Z,97340.69
2022-08-05T22:25:21.678Z,97337.41
2022-08-05T22:28:08.326Z,97340.44
2022-08-05T22:30:44.224Z,97343.59
2022-08-05T22:33:55.397Z,97332.66
2022-08-05T22:36:14.342Z,97333.66
2022-08-05T22:38:42.555Z,97337.41
2022-08-05T22:41:10.251Z,97335.63
2022-08-05T22:43:38.063Z,97335.19
2022-08-05T22:46:13.444Z,97333.53
2022-08-05T22:48:41.955Z,97333.22
2022-08-05T22:51:16.105Z,97335.03
2022-08-05T22:53:51.170Z,97333.78
2022-08-05T22:56:30.303Z,97338.03
2022-08-05T22:59:04.677Z,97330.25
2022-08-05T23:02:04.311Z,97331.25
2022-08-05T23:04:33.106Z,97334.47
2022-08-05T23:06:59.720Z,97335.16
2022-08-05T23:09:27.893Z,97334.66
2022-08-05T23:12:13.211Z,97336.78
2022-08-05T23:14:39.837Z,97335.63
2022-08-05T23:17:34.092Z,97333.38
2022-08-05T23:20:15.553Z,97331.53
2022-08-05T23:22:47.697Z,97327.97
2022-08-05T23:25:54.629Z,97329.16
2022-08-05T23:28:06.912Z,97327.19
2022-08-05T23:30:40.671Z,97328.31
2022-08-05T23:33:22.007Z,97332.50
2022-08-05T23:35:52.253Z,97326.47
2022-08-05T23:38:23.437Z,97331.91
2022-08-05T23:40:52.828Z,97340.69
2022-08-05T23:43:25.320Z,97343.63
2022-08-05T23:46:20.226Z,97336.81
2022-08-05T23:49:00.769Z,97338.25
2022-08-05T23:51:53.506Z,97350.97
2022-08-05T23:54:25.517Z,97337.28
2022-08-05T23:56:53.630Z,97344.47
2022-08-05T23:59:20.246Z,97346.69
